Portada
METAR-TAF:

METAR-TAF

Aeroports :

Tennant Creek, Austràlia

latitud: 19-38-04S, longitud: 134-11-00E, altitud: 377 m

Observació

L'informe es va fer fa 57 minuts, a les 00:00 UTC
Vent 4 kt del Oest/Nord-Oest, variant entre Sud-Oest i Nord
Temperatura 31°C
Humitat 55%
Pressió 1011 hPa
Visibilitat 10 km o més

METAR: YTNK 040000Z AUTO 29004KT 220V010 9999 // NCD 31/21 Q1011

Hora: 10:27 (00:57 UTC)

Pronòstic

L'informe es va fer fa 5 hores i 35 minuts, a les 19:22 UTC
Pronòstic vàlid del 03 a les 20 UTC al 04 a les 08 UTC
Vent 8 kt del Nord/Nord-Oest
Visibilitat 10 km o més
sense núvols per sota de 1500 mi sense presència de cumulonimbus.
Probabilitat 30% :
Temporalment
l' 04 a les 06 UTC al 04 a les 08 UTC
Vent 20 kt amb direcció variable amb ràfegues de 40 kt
Visibilitat: 3000 m
Núvols disperses a una alçada de 1500 ft
Núvols disperses a una alçada de 6000 ft, Cumulonimbus.
tempesta, pluja

TAF: YTNK 031922Z 0320/0408 34008KT CAVOK PROB30 TEMPO 0406/0408 VRB20G40KT 3000 TSRA SCT015 SCT060CB

Observacions i pronòstics meteorològics de més de 4000 aeroports (METAR i TAF).

Les estacions disponibles són els punts grocs i vermells al mapa.

Posi el ratolí al punt desitjat per veure el nom de l'estació.

Feu clic per veure les observacions i els pronòstics meteorològics.

Per canviar el mapa: feu clic els botons verds amb una creu de color negre per apropar; al botó verd amb un guió per allunyar la imatge; o en les fletxes verdes per a mapes adjacents.


METAR-TAF: